createdAt,value
2022-08-30T00:03:07.222Z,75.65
2022-08-30T00:06:32.142Z,75.85
2022-08-30T00:09:28.188Z,75.95
2022-08-30T00:12:53.662Z,76.05
2022-08-30T00:14:51.918Z,76.15
2022-08-30T00:16:49.933Z,76.05
2022-08-30T00:18:48.016Z,75.99
2022-08-30T00:21:15.758Z,76.29
2022-08-30T00:23:43.085Z,76.29
2022-08-30T00:36:10.662Z,76.29
2022-08-30T00:41:32.333Z,76.29
2022-08-30T00:43:59.408Z,76.29
2022-08-30T00:55:38.930Z,76.09
2022-08-30T01:01:28.979Z,76.09
2022-08-30T01:03:26.896Z,75.99
2022-08-30T01:08:48.183Z,75.79
2022-08-30T01:10:17.108Z,75.99
2022-08-30T01:12:15.101Z,75.99
2022-08-30T01:16:38.599Z,75.89
2022-08-30T01:20:04.735Z,75.79
2022-08-30T01:21:38.877Z,75.79
2022-08-30T01:23:37.229Z,75.59
2022-08-30T01:30:55.014Z,75.59
2022-08-30T01:32:26.167Z,75.72
2022-08-30T01:34:22.140Z,75.72
2022-08-30T01:39:14.929Z,75.72
2022-08-30T01:44:07.231Z,75.38
2022-08-30T01:49:28.864Z,75.09
2022-08-30T01:51:26.824Z,75.09
2022-08-30T01:59:13.065Z,75.02
2022-08-30T02:00:42.053Z,74.92
2022-08-30T02:02:11.207Z,74.92
2022-08-30T02:04:38.446Z,75.02
2022-08-30T02:06:07.178Z,75.02
2022-08-30T02:07:36.178Z,74.92
2022-08-30T02:09:05.146Z,74.82
2022-08-30T02:11:03.197Z,75.02
2022-08-30T02:13:30.250Z,74.92
2022-08-30T02:19:20.460Z,74.92
2022-08-30T02:21:47.469Z,74.92
2022-08-30T02:24:43.445Z,74.82
2022-08-30T02:32:30.483Z,75.35
2022-08-30T02:34:28.560Z,75.35
2022-08-30T02:37:24.788Z,75.46
2022-08-30T02:39:22.771Z,75.35
2022-08-30T02:55:51.646Z,75.49
2022-08-30T02:57:20.597Z,75.39
2022-08-30T02:59:47.629Z,75.49
2022-08-30T03:04:10.829Z,75.29
2022-08-30T03:05:39.981Z,75.19
2022-08-30T03:07:08.797Z,75.39
2022-08-30T03:08:37.757Z,75.09
2022-08-30T03:14:57.056Z,75.19
2022-08-30T03:18:22.137Z,75.09
2022-08-30T03:26:37.310Z,74.99
2022-08-30T03:31:58.522Z,74.89
2022-08-30T03:35:52.524Z,75.19
2022-08-30T03:37:26.877Z,75.19
2022-08-30T03:41:47.226Z,75.09
2022-08-30T03:45:11.213Z,74.99
2022-08-30T03:47:09.480Z,74.99
2022-08-30T03:48:38.230Z,75.09
2022-08-30T03:52:32.837Z,75.09
2022-08-30T03:54:01.801Z,75.09
2022-08-30T03:59:23.043Z,75.29
2022-08-30T04:05:42.197Z,75.29
2022-08-30T04:07:11.229Z,75.19
2022-08-30T04:09:09.221Z,75.19
2022-08-30T04:13:32.596Z,75.19
2022-08-30T04:15:59.616Z,75.19
2022-08-30T04:17:57.479Z,75.29
2022-08-30T04:19:26.505Z,75.29
2022-08-30T04:22:51.511Z,75.19
2022-08-30T04:24:49.516Z,75.19
2022-08-30T04:26:18.599Z,75.19
2022-08-30T04:28:45.643Z,75.29
2022-08-30T04:36:33.246Z,75.13
2022-08-30T04:39:29.174Z,75.23
2022-08-30T04:40:58.218Z,75.23
2022-08-30T04:43:54.195Z,75.13
2022-08-30T04:46:21.339Z,75.23
2022-08-30T04:51:14.105Z,75.09
2022-08-30T04:52:43.288Z,74.89
2022-08-30T04:55:39.572Z,74.89
2022-08-30T04:57:37.592Z,74.89
2022-08-30T04:59:35.613Z,74.89
2022-08-30T05:01:04.639Z,74.99
2022-08-30T05:04:58.761Z,74.73
2022-08-30T05:07:54.937Z,74.69
2022-08-30T05:09:52.967Z,74.49
2022-08-30T05:11:21.950Z,74.29
2022-08-30T05:13:20.024Z,74.49
2022-08-30T05:15:47.435Z,74.52
2022-08-30T05:20:48.109Z,75.02
2022-08-30T05:23:15.283Z,74.38
2022-08-30T05:32:30.099Z,74.82
2022-08-30T05:35:29.983Z,75.02
2022-08-30T05:37:27.960Z,75.02
2022-08-30T05:39:55.333Z,75.02
2022-08-30T05:43:20.419Z,74.82
2022-08-30T05:44:50.465Z,74.93
2022-08-30T05:46:48.617Z,75.02
2022-08-30T05:48:17.884Z,74.89
2022-08-30T05:49:46.639Z,74.89
2022-08-30T05:53:11.848Z,74.99
2022-08-30T05:55:09.890Z,74.89
2022-08-30T05:56:38.817Z,74.89
2022-08-30T05:58:07.851Z,74.79
2022-08-30T05:59:37.335Z,74.69
2022-08-30T06:03:02.999Z,74.55
2022-08-30T06:05:30.241Z,74.35
2022-08-30T06:07:57.400Z,74.35
2022-08-30T06:11:23.132Z,74.35
2022-08-30T06:12:52.422Z,74.15
2022-08-30T06:15:48.619Z,73.81
2022-08-30T06:17:17.561Z,73.51
2022-08-30T06:19:15.538Z,73.41
2022-08-30T06:21:15.255Z,73.41
2022-08-30T06:23:11.624Z,73.38
2022-08-30T06:24:57.016Z,73.07
2022-08-30T06:26:11.059Z,72.97
2022-08-30T06:31:33.005Z,72.87
2022-08-30T06:37:52.843Z,72.67
2022-08-30T06:39:21.799Z,72.53
2022-08-30T06:41:48.841Z,72.64
2022-08-30T06:44:15.874Z,72.74
2022-08-30T06:45:44.798Z,72.53
2022-08-30T06:47:13.839Z,72.53
2022-08-30T06:48:45.142Z,72.33
2022-08-30T06:51:11.034Z,72.33
2022-08-30T06:56:03.085Z,72.13
2022-08-30T06:58:59.188Z,72.33
2022-08-30T07:00:57.503Z,72.13
2022-08-30T07:02:26.592Z,72.24
2022-08-30T07:07:48.764Z,71.83
2022-08-30T07:09:18.816Z,71.83
2022-08-30T07:13:25.028Z,71.70
2022-08-30T07:17:32.504Z,71.30
2022-08-30T07:22:51.055Z,70.89
2022-08-30T07:28:13.257Z,70.66
2022-08-30T07:29:42.168Z,71.06
2022-08-30T07:31:40.275Z,71.06
2022-08-30T07:34:36.513Z,70.76
2022-08-30T07:39:04.158Z,70.26
2022-08-30T07:41:31.196Z,70.56
2022-08-30T07:44:57.526Z,70.23
2022-08-30T07:47:24.891Z,70.03
2022-08-30T07:48:53.914Z,69.73
2022-08-30T07:52:48.236Z,70.03
2022-08-30T07:55:15.245Z,69.02
2022-08-30T07:56:44.272Z,68.92
2022-08-30T07:59:40.286Z,68.52
2022-08-30T08:01:09.438Z,68.82
2022-08-30T08:02:38.312Z,69.02
2022-08-30T08:04:07.248Z,68.72
2022-08-30T08:06:05.253Z,68.42
2022-08-30T08:10:57.463Z,66.99
2022-08-30T08:13:24.481Z,66.68
2022-08-30T08:17:18.734Z,66.68
2022-08-30T08:21:12.981Z,65.78
2022-08-30T08:23:11.266Z,65.45
2022-08-30T08:25:09.323Z,65.45
2022-08-30T08:27:07.453Z,65.15
2022-08-30T08:30:05.349Z,65.45
2022-08-30T08:39:18.841Z,64.72
2022-08-30T08:40:48.782Z,64.22
2022-08-30T08:45:40.102Z,62.71
2022-08-30T08:47:09.234Z,62.92
2022-08-30T08:48:58.637Z,63.01
2022-08-30T08:51:35.738Z,62.98
2022-08-30T08:53:04.807Z,63.28
2022-08-30T08:55:03.793Z,62.78
2022-08-30T08:57:58.895Z,62.08
2022-08-30T08:59:27.917Z,62.58
2022-08-30T09:00:56.950Z,62.58
2022-08-30T09:02:56.057Z,61.48
2022-08-30T09:04:28.474Z,62.08
2022-08-30T09:05:57.528Z,61.48
2022-08-30T09:08:24.535Z,61.95
2022-08-30T09:10:40.367Z,61.85
2022-08-30T09:16:43.941Z,59.75
2022-08-30T09:19:11.374Z,59.75
2022-08-30T09:20:40.365Z,59.65
2022-08-30T09:22:09.624Z,59.65
2022-08-30T09:27:01.669Z,59.05
2022-08-30T09:29:28.681Z,59.52
2022-08-30T09:32:54.422Z,59.52
2022-08-30T09:51:23.222Z,59.49
2022-08-30T09:53:23.642Z,58.59
2022-08-30T09:54:50.320Z,58.26
2022-08-30T09:56:19.302Z,57.97
2022-08-30T09:59:44.445Z,56.77
2022-08-30T10:01:13.491Z,56.57
2022-08-30T10:06:36.053Z,57.37
2022-08-30T10:15:20.335Z,56.14
2022-08-30T10:17:18.249Z,57.04
2022-08-30T10:31:53.867Z,54.22
2022-08-30T10:34:20.948Z,55.02
2022-08-30T10:36:47.996Z,55.58
2022-08-30T10:38:46.837Z,55.09
2022-08-30T10:40:15.869Z,55.11
2022-08-30T10:42:13.935Z,55.69
2022-08-30T10:44:41.320Z,54.71
2022-08-30T10:46:39.007Z,54.29
2022-08-30T10:52:59.315Z,54.39
2022-08-30T10:55:55.524Z,54.76
2022-08-30T10:59:50.219Z,54.57
2022-08-30T11:02:46.848Z,54.27
2022-08-30T11:08:09.072Z,54.16
2022-08-30T11:12:04.622Z,54.34
2022-08-30T11:17:26.309Z,53.64
2022-08-30T11:21:02.064Z,54.53
2022-08-30T11:23:58.502Z,54.34
2022-08-30T11:29:20.591Z,53.84
2022-08-30T11:33:16.655Z,53.52
2022-08-30T11:34:44.946Z,54.41
2022-08-30T11:36:14.774Z,54.51
2022-08-30T11:41:38.263Z,53.11
2022-08-30T11:48:24.349Z,54.11
2022-08-30T11:50:22.700Z,52.62
2022-08-30T11:52:08.450Z,52.62
2022-08-30T11:53:21.490Z,52.00
2022-08-30T11:57:44.829Z,52.89
2022-08-30T12:00:12.306Z,52.19
2022-08-30T12:02:39.595Z,52.69
2022-08-30T12:04:37.443Z,52.89
2022-08-30T12:06:06.479Z,52.79
2022-08-30T12:09:03.293Z,52.67
2022-08-30T12:11:31.728Z,52.27
2022-08-30T12:13:29.637Z,52.57
2022-08-30T12:15:32.287Z,52.17
2022-08-30T12:18:57.911Z,52.24
2022-08-30T12:20:55.608Z,51.25
2022-08-30T12:22:24.590Z,50.85
2022-08-30T12:27:07.944Z,50.65
2022-08-30T12:28:36.925Z,50.25
2022-08-30T12:31:04.015Z,51.35
2022-08-30T12:33:02.015Z,51.15
2022-08-30T12:34:31.038Z,51.65
2022-08-30T12:36:29.128Z,50.25
2022-08-30T12:37:58.114Z,50.45
2022-08-30T12:40:25.211Z,51.35
2022-08-30T12:42:52.348Z,50.45
2022-08-30T12:44:51.689Z,50.45
2022-08-30T12:47:19.128Z,50.35
2022-08-30T12:48:48.100Z,52.24
2022-08-30T12:50:46.086Z,51.05
2022-08-30T12:52:15.108Z,50.05
2022-08-30T12:55:17.189Z,50.25
2022-08-30T13:00:04.504Z,50.65
2022-08-30T13:01:33.477Z,50.75
2022-08-30T13:04:00.463Z,51.12
2022-08-30T13:09:52.999Z,49.66
2022-08-30T13:12:19.957Z,50.43
2022-08-30T13:14:17.856Z,50.73
2022-08-30T13:15:46.935Z,49.73
2022-08-30T13:17:15.933Z,49.73
2022-08-30T13:19:14.397Z,49.53
2022-08-30T13:21:41.761Z,50.33
2022-08-30T13:29:28.925Z,49.61
2022-08-30T13:30:58.401Z,49.11
2022-08-30T13:32:27.331Z,49.41
2022-08-30T13:34:26.296Z,50.50
2022-08-30T13:36:24.628Z,49.71
2022-08-30T13:37:52.536Z,49.71
2022-08-30T13:39:50.418Z,50.10
2022-08-30T13:42:47.007Z,49.51
2022-08-30T13:45:43.258Z,49.01
2022-08-30T13:47:40.953Z,49.11
2022-08-30T13:54:59.393Z,49.80
2022-08-30T13:56:57.425Z,49.21
2022-08-30T13:58:55.487Z,48.71
2022-08-30T14:00:53.860Z,50.20
2022-08-30T14:20:32.127Z,49.08
2022-08-30T14:22:30.246Z,48.89
2022-08-30T14:26:24.628Z,47.89
2022-08-30T14:32:44.332Z,50.31
2022-08-30T14:36:39.440Z,49.21
2022-08-30T14:39:08.232Z,48.61
2022-08-30T14:41:32.899Z,48.32
2022-08-30T14:43:01.831Z,47.72
2022-08-30T14:44:45.680Z,49.21
2022-08-30T14:46:59.338Z,48.41
2022-08-30T14:52:22.119Z,49.61
2022-08-30T14:58:42.347Z,49.01
2022-08-30T15:05:02.903Z,49.41
2022-08-30T15:07:00.961Z,49.71
2022-08-30T15:08:58.983Z,49.91
2022-08-30T15:11:56.753Z,48.91
2022-08-30T15:17:18.170Z,49.73
2022-08-30T15:21:13.396Z,48.94
2022-08-30T15:23:11.966Z,48.94
2022-08-30T15:26:09.878Z,49.06
2022-08-30T15:27:38.364Z,48.46
2022-08-30T15:30:05.778Z,49.23
2022-08-30T15:34:30.416Z,49.46
2022-08-30T15:35:58.374Z,48.96
2022-08-30T15:40:52.345Z,48.66
2022-08-30T15:45:44.899Z,47.86
2022-08-30T15:49:38.985Z,46.87
2022-08-30T15:51:08.321Z,46.57
2022-08-30T15:52:37.456Z,47.27
2022-08-30T15:54:06.556Z,47.66
2022-08-30T15:56:04.887Z,48.76
2022-08-30T15:58:03.358Z,48.56
2022-08-30T16:01:58.272Z,50.95
2022-08-30T16:07:19.686Z,48.56
2022-08-30T16:11:14.072Z,49.16
2022-08-30T16:12:43.137Z,49.06
2022-08-30T16:19:02.792Z,48.88
2022-08-30T16:21:01.892Z,49.78
2022-08-30T16:22:30.618Z,49.68
2022-08-30T16:25:40.690Z,48.88
2022-08-30T16:28:24.506Z,48.79
2022-08-30T16:31:50.068Z,48.79
2022-08-30T16:43:58.619Z,48.71
2022-08-30T16:45:32.506Z,48.71
2022-08-30T16:51:39.789Z,49.30
2022-08-30T16:54:07.671Z,48.91
2022-08-30T16:59:02.523Z,48.91
2022-08-30T17:02:25.129Z,48.61
2022-08-30T17:07:47.326Z,48.83
2022-08-30T17:11:41.528Z,48.43
2022-08-30T17:13:10.565Z,48.43
2022-08-30T17:15:38.760Z,48.53
2022-08-30T17:21:29.345Z,48.23
2022-08-30T17:24:25.556Z,48.33
2022-08-30T17:26:23.697Z,48.43
2022-08-30T17:28:51.304Z,48.43
2022-08-30T17:30:20.363Z,49.03
2022-08-30T17:35:12.958Z,48.63
2022-08-30T17:46:55.878Z,49.45
2022-08-30T17:48:24.832Z,49.55
2022-08-30T17:51:21.014Z,49.15
2022-08-30T17:52:50.870Z,49.85
2022-08-30T17:54:19.125Z,49.75
2022-08-30T17:57:45.374Z,48.85
2022-08-30T17:59:44.211Z,50.05
2022-08-30T18:04:08.595Z,49.18
2022-08-30T18:08:25.223Z,49.68
2022-08-30T18:13:18.490Z,51.07
2022-08-30T18:15:16.671Z,51.27
2022-08-30T18:17:15.066Z,50.27
2022-08-30T18:23:35.030Z,52.09
2022-08-30T18:25:04.008Z,51.50
2022-08-30T18:29:56.489Z,52.39
2022-08-30T18:33:21.911Z,52.59
2022-08-30T18:35:19.988Z,52.00
2022-08-30T18:40:17.093Z,52.52
2022-08-30T18:42:40.818Z,52.92
2022-08-30T18:45:37.534Z,53.12
2022-08-30T18:47:35.324Z,53.42
2022-08-30T18:50:02.722Z,53.61
2022-08-30T18:52:00.954Z,53.72
2022-08-30T18:53:30.196Z,53.81
2022-08-30T18:55:27.984Z,54.22
2022-08-30T19:11:53.273Z,55.34
2022-08-30T19:14:49.867Z,55.74
2022-08-30T19:28:56.573Z,57.17
2022-08-30T19:31:52.926Z,57.37
2022-08-30T19:34:49.577Z,58.06
2022-08-30T19:41:38.933Z,57.57
2022-08-30T19:44:06.420Z,57.67
2022-08-30T19:46:24.505Z,57.76
2022-08-30T19:48:51.694Z,57.76
2022-08-30T19:50:20.670Z,57.57
2022-08-30T20:02:08.022Z,59.30
2022-08-30T20:07:01.701Z,59.30
2022-08-30T20:13:51.897Z,59.69
2022-08-30T20:18:15.763Z,60.22
2022-08-30T20:20:13.968Z,60.32
2022-08-30T20:21:43.046Z,60.22
2022-08-30T20:25:10.885Z,60.42
2022-08-30T20:26:37.676Z,60.52
2022-08-30T20:33:09.500Z,60.92
2022-08-30T20:40:31.702Z,61.62
2022-08-30T20:43:57.928Z,61.92
2022-08-30T20:45:56.205Z,62.02
2022-08-30T20:49:22.536Z,62.22
2022-08-30T20:51:54.173Z,62.42
2022-08-30T20:53:53.058Z,62.52
2022-08-30T20:55:22.187Z,62.55
2022-08-30T20:57:24.303Z,62.65
2022-08-30T21:06:54.495Z,62.95
2022-08-30T21:08:52.728Z,63.15
2022-08-30T21:10:23.446Z,63.15
2022-08-30T21:17:12.283Z,63.35
2022-08-30T21:19:10.965Z,63.35
2022-08-30T21:20:40.299Z,63.45
2022-08-30T21:22:38.942Z,63.56
2022-08-30T21:28:00.668Z,63.65
2022-08-30T21:31:55.802Z,63.65
2022-08-30T21:37:16.763Z,63.85
2022-08-30T21:39:14.738Z,63.85
2022-08-30T21:43:08.964Z,64.18
2022-08-30T21:54:48.824Z,64.39
2022-08-30T21:56:46.931Z,64.18
2022-08-30T21:59:14.169Z,64.39
2022-08-30T22:01:12.353Z,64.28
2022-08-30T22:08:00.568Z,64.18
2022-08-30T22:11:55.994Z,64.18
2022-08-30T22:17:17.676Z,64.18
2022-08-30T22:22:40.387Z,64.28
2022-08-30T22:25:07.592Z,64.28
2022-08-30T22:26:36.577Z,64.18
2022-08-30T22:33:25.670Z,63.98
2022-08-30T22:34:54.962Z,63.98
2022-08-30T22:40:16.960Z,64.01
2022-08-30T22:52:25.675Z,64.42
2022-08-30T22:56:48.992Z,64.42
2022-08-30T23:00:49.715Z,64.22
2022-08-30T23:06:06.370Z,64.01
2022-08-30T23:11:28.356Z,63.81
2022-08-30T23:17:47.694Z,63.84
2022-08-30T23:24:35.959Z,63.64
2022-08-30T23:26:36.488Z,63.84
2022-08-30T23:28:33.026Z,63.64
2022-08-30T23:30:02.002Z,63.54
2022-08-30T23:31:31.154Z,63.24
2022-08-30T23:34:27.364Z,63.34
2022-08-30T23:42:54.119Z,62.77
2022-08-30T23:48:49.999Z,62.87
2022-08-30T23:55:05.996Z,62.64
2022-08-30T23:56:36.176Z,62.24
2022-08-30T23:59:31.366Z,61.84
